Time;durP1;ratioP1;P1;durP2;ratioP2;P2;SDS_P1;SDS_P2;PMS_P1;PMS_P2;Temp;Humidity;BMP_temperature;BMP_pressure;BME280_temperature;BME280_humidity;BME280_pressure;Samples;Min_cycle;Max_cycle;Signal;HPM_P1;HPM_P2
2022/07/03 00:02:05;;;;;;;3.50;3.10;;;17.90;99.90;;;;;;5037067;28;20126;-85
2022/07/03 00:04:31;;;;;;;9.07;3.55;;;17.80;99.90;;;;;;5052932;28;20052;-86
2022/07/03 00:06:56;;;;;;;5.40;3.30;;;17.80;99.90;;;;;;5071385;28;20044;-86
2022/07/03 00:09:22;;;;;;;3.58;3.28;;;17.80;99.90;;;;;;5019868;28;20086;-84
2022/07/03 00:11:48;;;;;;;4.65;3.08;;;17.70;99.90;;;;;;5071244;28;20507;-84
2022/07/03 00:14:13;;;;;;;5.28;3.60;;;17.70;99.90;;;;;;5071164;28;20053;-85
2022/07/03 00:16:39;;;;;;;5.55;3.50;;;17.70;99.90;;;;;;5053456;28;20052;-84
2022/07/03 00:19:05;;;;;;;5.45;3.15;;;17.70;99.90;;;;;;5071321;28;20131;-84
2022/07/03 00:21:52;;;;;;;5.15;3.65;;;17.60;99.90;;;;;;5053305;28;20107;-84
2022/07/03 00:24:23;;;;;;;4.78;3.58;;;17.60;99.90;;;;;;5020593;28;20102;-84
2022/07/03 00:26:51;;;;;;;3.40;3.10;;;17.60;99.90;;;;;;5070993;28;20056;-85
2022/07/03 00:29:16;;;;;;;5.05;3.10;;;17.50;99.90;;;;;;5071189;28;20044;-84
2022/07/03 00:31:42;;;;;;;4.70;3.60;;;17.50;99.90;;;;;;5032582;28;20059;-83
2022/07/03 00:34:08;;;;;;;3.83;3.40;;;17.50;99.90;;;;;;5051153;28;20389;-84
2022/07/03 00:36:37;;;;;;;5.18;3.60;;;17.50;99.90;;;;;;5032427;28;20049;-84
2022/07/03 00:39:03;;;;;;;5.63;4.20;;;17.50;99.90;;;;;;5016260;28;20045;-83
2022/07/03 00:41:30;;;;;;;7.00;4.18;;;17.60;99.90;;;;;;5050626;28;20053;-84
2022/07/03 00:43:56;;;;;;;4.50;3.70;;;17.60;99.90;;;;;;5000494;28;20082;-85
2022/07/03 00:46:24;;;;;;;5.10;3.70;;;17.50;99.90;;;;;;5032874;28;20076;-87
2022/07/03 00:48:50;;;;;;;4.20;3.47;;;17.50;99.90;;;;;;5050757;28;20098;-84
2022/07/03 00:51:19;;;;;;;5.00;4.22;;;17.50;99.90;;;;;;5033398;28;20049;-84
2022/07/03 00:53:44;;;;;;;4.00;3.63;;;17.40;99.90;;;;;;5016443;28;20051;-84
2022/07/03 00:56:10;;;;;;;5.45;3.85;;;17.40;99.90;;;;;;5032986;28;20128;-84
2022/07/03 00:58:36;;;;;;;4.60;3.60;;;17.40;99.90;;;;;;5016381;28;20140;-84
2022/07/03 01:01:02;;;;;;;4.65;3.42;;;17.40;99.90;;;;;;5033127;28;20539;-85
2022/07/03 01:03:27;;;;;;;6.20;3.78;;;17.30;99.90;;;;;;5032523;28;20501;-84
2022/07/03 01:05:54;;;;;;;4.85;3.90;;;17.30;99.90;;;;;;5033135;28;20132;-83
2022/07/03 01:08:41;;;;;;;8.50;4.10;;;17.20;99.90;;;;;;5016733;28;20063;-84
2022/07/03 01:11:27;;;;;;;5.93;4.00;;;17.20;99.90;;;;;;5017035;28;20473;-84
2022/07/03 01:14:19;;;;;;;5.43;4.25;;;17.10;99.90;;;;;;5032851;28;20045;-84
2022/07/03 01:16:47;;;;;;;8.15;4.10;;;17.10;99.90;;;;;;5039207;28;20088;-84
2022/07/03 01:19:46;;;;;;;6.18;4.30;;;17.10;99.90;;;;;;5032823;28;20374;-84
2022/07/03 01:22:22;;;;;;;5.72;4.57;;;17.10;99.90;;;;;;5006216;28;20067;-84
2022/07/03 01:25:07;;;;;;;5.38;4.00;;;17.00;99.90;;;;;;5050348;28;20120;-84
2022/07/03 01:27:42;;;;;;;5.15;4.10;;;16.90;99.90;;;;;;5032636;28;20103;-85
2022/07/03 01:30:10;;;;;;;3.60;3.17;;;16.90;99.90;;;;;;5000257;28;20060;-85
2022/07/03 01:32:41;;;;;;;4.65;3.78;;;16.80;99.90;;;;;;5050097;28;20094;-84
2022/07/03 01:35:08;;;;;;;5.10;3.95;;;16.80;99.90;;;;;;5070542;28;20405;-83
2022/07/03 01:37:34;;;;;;;4.07;3.70;;;16.70;99.90;;;;;;5052390;28;20082;-85
2022/07/03 01:40:00;;;;;;;4.70;3.90;;;16.70;99.90;;;;;;5052835;28;20051;-84
2022/07/03 01:42:26;;;;;;;4.47;3.60;;;16.70;99.90;;;;;;5036003;28;20499;-83
2022/07/03 01:44:53;;;;;;;5.03;3.95;;;16.60;99.90;;;;;;5035588;28;20052;-83
2022/07/03 01:47:19;;;;;;;4.25;3.70;;;16.60;99.90;;;;;;5019893;28;20059;-84
2022/07/03 01:49:44;;;;;;;6.13;3.85;;;16.50;99.90;;;;;;5071957;28;20044;-84
2022/07/03 01:52:10;;;;;;;5.15;4.07;;;16.50;99.90;;;;;;5074182;28;20200;-84
2022/07/03 01:54:37;;;;;;;4.10;3.67;;;16.50;99.90;;;;;;5056144;28;20439;-84
2022/07/03 01:57:03;;;;;;;5.25;4.35;;;16.40;99.90;;;;;;5039507;28;20045;-85
2022/07/03 01:59:29;;;;;;;4.90;4.05;;;16.40;99.90;;;;;;5039824;28;20052;-84
2022/07/03 02:02:25;;;;;;;4.93;3.88;;;16.30;99.90;;;;;;5074249;28;20148;-84
2022/07/03 02:05:00;;;;;;;5.00;3.75;;;16.30;99.90;;;;;;5058833;28;20086;-84
2022/07/03 02:07:41;;;;;;;5.93;4.20;;;16.20;99.90;;;;;;5056340;28;20058;-85
2022/07/03 02:10:08;;;;;;;5.03;4.45;;;16.10;99.90;;;;;;5039536;28;20256;-85
2022/07/03 02:13:01;;;;;;;4.15;3.75;;;16.10;99.90;;;;;;5073019;28;20508;-86
2022/07/03 02:15:34;;;;;;;7.05;4.68;;;16.00;99.90;;;;;;5069922;28;20049;-82
2022/07/03 02:18:04;;;;;;;5.22;4.72;;;16.00;99.90;;;;;;5056179;28;20392;-84
2022/07/03 02:20:30;;;;;;;5.38;4.88;;;15.90;99.90;;;;;;5039913;28;20488;-83
2022/07/03 02:23:04;;;;;;;5.35;4.85;;;15.90;99.90;;;;;;5038774;28;20128;-83
2022/07/03 02:25:36;;;;;;;5.32;4.70;;;15.90;99.90;;;;;;5055520;28;20088;-84
2022/07/03 02:28:06;;;;;;;6.40;5.15;;;15.80;99.90;;;;;;5055685;28;20052;-84
2022/07/03 02:30:34;;;;;;;5.10;4.68;;;15.70;99.90;;;;;;5038925;28;20040;-84
2022/07/03 02:33:01;;;;;;;7.15;4.80;;;15.70;99.90;;;;;;5055096;28;20396;-83
2022/07/03 02:35:28;;;;;;;5.28;4.82;;;15.60;99.90;;;;;;5039095;28;20052;-84
2022/07/03 02:38:06;;;;;;;5.85;4.75;;;15.60;99.90;;;;;;5073023;28;20087;-84
2022/07/03 02:41:01;;;;;;;6.43;5.10;;;15.60;99.90;;;;;;5055526;28;20056;-84
2022/07/03 02:43:39;;;;;;;;;;;15.60;99.90;;;;;;5056703;28;20047;-84
2022/07/03 02:49:35;;;;;;;8.13;5.28;;;15.50;99.90;;;;;;5044080;28;20048;-84
2022/07/03 02:52:32;;;;;;;9.38;5.78;;;15.40;99.90;;;;;;5050348;28;20056;-84
2022/07/03 02:55:05;;;;;;;6.85;5.32;;;15.40;99.90;;;;;;5072616;28;20048;-84
2022/07/03 02:57:40;;;;;;;6.13;5.43;;;15.40;99.90;;;;;;5039421;28;20044;-84
2022/07/03 03:00:08;;;;;;;10.50;5.32;;;15.40;99.90;;;;;;5055002;28;20048;-84
2022/07/03 03:02:49;;;;;;;7.15;5.82;;;15.40;99.90;;;;;;5038086;28;20075;-85
2022/07/03 03:05:38;;;;;;;5.40;4.90;;;15.40;99.90;;;;;;5054892;28;20048;-85
2022/07/03 03:08:22;;;;;;;7.47;5.15;;;15.30;99.90;;;;;;5072373;28;20114;-85
2022/07/03 03:10:48;;;;;;;8.73;5.50;;;15.30;99.90;;;;;;5038079;28;20094;-84
2022/07/03 03:13:16;;;;;;;7.13;5.35;;;15.30;99.90;;;;;;5054782;28;20052;-84
2022/07/03 03:16:05;;;;;;;5.40;4.90;;;15.30;99.90;;;;;;5054429;28;20046;-83
2022/07/03 03:18:31;;;;;;;5.65;5.05;;;15.30;99.90;;;;;;5022090;28;20048;-84
2022/07/03 03:21:00;;;;;;;8.45;5.32;;;15.30;99.90;;;;;;5037565;28;20072;-84
2022/07/03 03:23:34;;;;;;;7.00;5.50;;;15.30;99.90;;;;;;5072362;28;20499;-84
2022/07/03 03:26:00;;;;;;;5.60;5.10;;;15.30;99.90;;;;;;5054254;28;20048;-84
2022/07/03 03:28:26;;;;;;;5.70;5.20;;;15.30;99.90;;;;;;5021870;28;20067;-83
2022/07/03 03:30:51;;;;;;;5.65;5.05;;;15.30;99.90;;;;;;5053785;28;20049;-84
2022/07/03 03:33:17;;;;;;;6.38;5.78;;;15.30;99.90;;;;;;5072180;28;20062;-84
2022/07/03 03:35:43;;;;;;;6.35;5.75;;;15.30;99.90;;;;;;5071585;28;20388;-84
2022/07/03 03:38:08;;;;;;;10.18;7.65;;;15.30;99.90;;;;;;5072045;28;20041;-84
2022/07/03 03:40:34;;;;;;;7.07;6.38;;;15.20;99.90;;;;;;5072011;28;20052;-84
2022/07/03 03:43:00;;;;;;;8.38;6.70;;;15.20;99.90;;;;;;5037201;28;20135;-84
2022/07/03 03:45:26;;;;;;;6.70;6.10;;;15.30;99.90;;;;;;5054510;28;20060;-84
2022/07/03 03:47:51;;;;;;;6.40;5.68;;;15.40;99.90;;;;;;5071508;28;20053;-85
2022/07/03 03:50:17;;;;;;;6.13;5.18;;;15.50;99.90;;;;;;5053891;28;20048;-84
2022/07/03 03:52:43;;;;;;;6.18;5.57;;;15.70;99.90;;;;;;5053666;28;20044;-84
2022/07/03 03:55:09;;;;;;;7.57;5.55;;;15.90;99.90;;;;;;5043359;28;20044;-85
2022/07/03 03:57:34;;;;;;;5.63;5.10;;;15.90;99.90;;;;;;5090679;28;20058;-84
2022/07/03 04:00:00;;;;;;;5.63;5.10;;;16.00;99.90;;;;;;5053556;28;20056;-84
2022/07/03 04:02:26;;;;;;;6.60;5.20;;;16.10;99.90;;;;;;5053665;28;20594;-83
2022/07/03 04:04:51;;;;;;;6.22;5.25;;;16.10;99.90;;;;;;5053134;28;20049;-84
2022/07/03 04:07:17;;;;;;;5.25;4.72;;;16.10;99.90;;;;;;5053978;28;20049;-84
2022/07/03 04:09:44;;;;;;;6.75;5.07;;;16.10;99.90;;;;;;5071243;28;20426;-84
2022/07/03 04:12:11;;;;;;;5.57;5.00;;;16.00;99.90;;;;;;5035957;28;20098;-84
2022/07/03 04:14:36;;;;;;;9.95;5.72;;;16.00;99.90;;;;;;5053409;28;20103;-84
2022/07/03 04:17:02;;;;;;;5.82;5.15;;;16.10;99.90;;;;;;5053254;28;20044;-84
2022/07/03 04:19:28;;;;;;;6.10;4.63;;;16.00;99.90;;;;;;5070911;28;20062;-84
2022/07/03 04:21:54;;;;;;;10.30;4.95;;;16.00;99.90;;;;;;5053127;28;20049;-84
2022/07/03 04:24:19;;;;;;;5.63;4.55;;;16.00;99.90;;;;;;5071051;28;20040;-84
2022/07/03 04:26:45;;;;;;;6.28;5.20;;;16.00;99.90;;;;;;5053395;28;20507;-84
2022/07/03 04:29:11;;;;;;;5.95;5.03;;;16.00;99.90;;;;;;5070715;28;20139;-83
2022/07/03 04:31:36;;;;;;;7.32;5.18;;;16.00;99.90;;;;;;5032945;28;20056;-84
2022/07/03 04:34:02;;;;;;;6.45;4.75;;;16.10;99.90;;;;;;5050691;28;20550;-84
2022/07/03 04:36:28;;;;;;;6.55;4.82;;;16.10;99.90;;;;;;5033520;28;20061;-84
2022/07/03 04:38:54;;;;;;;5.63;5.13;;;16.10;99.90;;;;;;5050616;28;20107;-84
2022/07/03 04:41:20;;;;;;;5.55;4.97;;;16.10;99.90;;;;;;5033191;28;20404;-85
2022/07/03 04:43:45;;;;;;;9.63;5.53;;;16.10;99.90;;;;;;5050394;28;20041;-84
2022/07/03 04:46:11;;;;;;;7.60;5.30;;;16.10;99.90;;;;;;5032733;28;20384;-84
2022/07/03 04:48:37;;;;;;;7.38;4.97;;;16.10;99.90;;;;;;5051169;28;20259;-84
2022/07/03 04:51:02;;;;;;;6.38;5.30;;;16.10;99.90;;;;;;5016404;28;20045;-84
2022/07/03 04:53:28;;;;;;;5.43;4.88;;;16.10;99.90;;;;;;5050818;28;20419;-84
2022/07/03 04:55:53;;;;;;;6.90;5.65;;;16.10;99.90;;;;;;5032580;28;20110;-85
2022/07/03 04:58:19;;;;;;;5.45;4.95;;;16.20;99.90;;;;;;5050667;28;20041;-84
2022/07/03 05:00:45;;;;;;;5.80;5.20;;;16.20;99.90;;;;;;5050815;28;20505;-83
2022/07/03 05:03:11;;;;;;;5.95;5.35;;;16.30;99.90;;;;;;5050186;28;20045;-84
2022/07/03 05:05:37;;;;;;;5.43;4.93;;;16.30;99.90;;;;;;5032880;28;20059;-85
2022/07/03 05:08:03;;;;;;;6.15;4.88;;;16.30;99.90;;;;;;5032219;28;20057;-84
2022/07/03 05:10:28;;;;;;;6.10;4.90;;;16.40;99.90;;;;;;5032822;28;20480;-84
2022/07/03 05:12:54;;;;;;;6.20;5.13;;;16.50;99.90;;;;;;5050491;28;20041;-84
2022/07/03 05:15:20;;;;;;;7.05;4.53;;;16.70;99.90;;;;;;5032601;28;20048;-83
2022/07/03 05:17:45;;;;;;;6.45;4.43;;;17.30;99.90;;;;;;5016697;28;20136;-83
2022/07/03 05:20:23;;;;;;;5.43;4.32;;;18.00;99.90;;;;;;5032273;28;20401;-84
2022/07/03 05:22:53;;;;;;;7.47;4.07;;;18.80;99.90;;;;;;5034477;28;20136;-84
2022/07/03 05:25:19;;;;;;;5.68;3.70;;;19.70;99.90;;;;;;5035590;28;20049;-84
2022/07/03 05:27:44;;;;;;;5.18;3.80;;;20.20;99.90;;;;;;5019847;28;20049;-84
2022/07/03 05:30:10;;;;;;;4.78;3.40;;;20.70;99.90;;;;;;5053616;28;20045;-85
2022/07/03 05:32:36;;;;;;;3.97;3.42;;;21.10;99.90;;;;;;5053854;28;20068;-85
2022/07/03 05:35:02;;;;;;;4.47;2.92;;;21.70;99.90;;;;;;5073873;28;20054;-84
2022/07/03 05:37:28;;;;;;;3.45;2.65;;;22.20;99.90;;;;;;5040214;28;20091;-84
2022/07/03 05:39:53;;;;;;;5.18;2.70;;;22.60;99.90;;;;;;5039937;28;20087;-84
2022/07/03 05:42:19;;;;;;;4.28;2.30;;;23.10;99.90;;;;;;5055510;28;20403;-84
2022/07/03 05:44:44;;;;;;;3.28;2.20;;;23.10;99.90;;;;;;5074138;28;20561;-83
2022/07/03 05:47:10;;;;;;;4.55;2.30;;;23.30;99.90;;;;;;5073905;28;20079;-85
2022/07/03 05:49:36;;;;;;;2.10;1.90;;;23.90;99.90;;;;;;5056213;28;20044;-84
2022/07/03 05:52:01;;;;;;;2.63;2.20;;;23.90;99.90;;;;;;5073800;28;20094;-85
2022/07/03 05:54:27;;;;;;;3.35;1.85;;;24.40;99.90;;;;;;5055758;28;20045;-84
2022/07/03 05:56:53;;;;;;;5.70;2.10;;;24.70;99.90;;;;;;5073792;28;20045;-84
2022/07/03 05:59:18;;;;;;;3.15;1.70;;;24.40;99.90;;;;;;5055839;28;20080;-84
2022/07/03 06:01:44;;;;;;;4.10;1.67;;;24.80;99.90;;;;;;5056104;28;20086;-84
2022/07/03 06:04:09;;;;;;;3.90;1.80;;;25.30;99.90;;;;;;5055294;28;20052;-84
2022/07/03 06:06:35;;;;;;;2.30;1.42;;;25.40;99.90;;;;;;5073669;28;20044;-84
2022/07/03 06:09:01;;;;;;;3.00;1.52;;;25.90;99.90;;;;;;5020657;28;20041;-84
2022/07/03 06:11:26;;;;;;;3.03;1.45;;;24.80;99.90;;;;;;5053254;28;20052;-84
2022/07/03 06:13:52;;;;;;;4.25;1.40;;;24.60;99.90;;;;;;5038824;28;20076;-86
2022/07/03 06:16:18;;;;;;;1.85;1.63;;;24.10;99.90;;;;;;5062758;28;20051;-86
2022/07/03 06:18:44;;;;;;;2.40;1.40;;;24.00;99.90;;;;;;5063652;28;20049;-86
2022/07/03 06:21:09;;;;;;;2.42;1.52;;;23.20;99.90;;;;;;5043375;28;20053;-87
2022/07/03 06:23:35;;;;;;;2.97;1.42;;;22.70;99.90;;;;;;5045348;28;20072;-87
2022/07/03 06:26:01;;;;;;;3.65;1.50;;;22.30;99.90;;;;;;5045227;28;20429;-85
2022/07/03 06:28:26;;;;;;;2.33;1.58;;;21.90;99.90;;;;;;5044046;28;20353;-84
2022/07/03 06:30:52;;;;;;;3.00;1.70;;;22.70;99.90;;;;;;5072658;28;20149;-85
2022/07/03 06:33:18;;;;;;;2.63;1.70;;;23.70;99.90;;;;;;5038173;28;20059;-84
2022/07/03 06:35:43;;;;;;;3.90;1.77;;;24.60;99.90;;;;;;5037915;28;20067;-86
2022/07/03 06:38:09;;;;;;;4.03;1.67;;;24.50;99.90;;;;;;5038627;28;20067;-88
2022/07/03 06:40:35;;;;;;;3.90;2.00;;;23.70;99.90;;;;;;5066572;28;20040;-85
2022/07/03 06:43:00;;;;;;;1.92;1.48;;;24.10;99.90;;;;;;5073117;28;20052;-85
2022/07/03 06:45:26;;;;;;;3.15;1.60;;;24.80;99.90;;;;;;5045657;28;20049;-86
2022/07/03 06:47:52;;;;;;;2.00;1.33;;;25.50;99.90;;;;;;5056693;28;20041;-86
2022/07/03 06:50:17;;;;;;;2.30;1.38;;;25.70;99.90;;;;;;5062124;28;20048;-85
2022/07/03 06:52:43;;;;;;;2.33;1.30;;;26.10;99.90;;;;;;5076439;28;20040;-84
2022/07/03 06:55:09;;;;;;;1.38;1.15;;;25.50;99.90;;;;;;5072320;28;20045;-85
2022/07/03 06:57:34;;;;;;;3.70;1.20;;;25.10;99.90;;;;;;5038410;28;20448;-85
2022/07/03 07:00:00;;;;;;;1.90;1.30;;;24.70;99.90;;;;;;5054672;28;20041;-87
2022/07/03 07:02:25;;;;;;;2.95;1.13;;;24.00;99.90;;;;;;5053954;28;20482;-87
2022/07/03 07:04:51;;;;;;;4.65;1.30;;;23.40;99.90;;;;;;5045673;28;20045;-86
2022/07/03 07:07:17;;;;;;;3.40;1.30;;;23.00;99.90;;;;;;5060985;28;20044;-87
2022/07/03 07:09:42;;;;;;;3.70;1.20;;;22.70;99.90;;;;;;5063681;28;20336;-86
2022/07/03 07:12:09;;;;;;;3.58;1.50;;;22.70;99.90;;;;;;5045073;28;20051;-86
2022/07/03 07:14:34;;;;;;;3.38;1.42;;;22.50;99.90;;;;;;5026649;28;20107;-86
2022/07/03 07:17:00;;;;;;;2.45;1.38;;;23.20;99.90;;;;;;5062948;28;20044;-87
2022/07/03 07:19:25;;;;;;;2.45;1.42;;;23.40;99.90;;;;;;5043324;28;20488;-87
2022/07/03 07:21:51;;;;;;;3.22;1.33;;;23.80;99.90;;;;;;5044259;28;20123;-88
2022/07/03 07:24:17;;;;;;;3.90;1.40;;;24.00;99.90;;;;;;5062229;28;20041;-85
2022/07/03 07:26:42;;;;;;;2.58;1.60;;;23.80;99.90;;;;;;5039617;28;20041;-86
2022/07/03 07:29:08;;;;;;;2.45;1.40;;;23.30;99.90;;;;;;5034003;28;20033;-86
2022/07/03 07:31:34;;;;;;;1.83;1.30;;;23.20;99.90;;;;;;5052075;28;20055;-84
2022/07/03 07:33:59;;;;;;;3.78;1.77;;;23.80;99.90;;;;;;5042846;28;20071;-87
2022/07/03 07:36:25;;;;;;;4.00;1.42;;;24.10;99.90;;;;;;5061833;28;20037;-87
2022/07/03 07:38:51;;;;;;;2.25;1.45;;;24.90;99.90;;;;;;5044050;28;20044;-86
2022/07/03 07:41:16;;;;;;;3.25;1.38;;;24.80;99.90;;;;;;5048344;28;20123;-86
2022/07/03 07:43:42;;;;;;;2.72;1.30;;;24.30;99.90;;;;;;5072420;28;20040;-87
2022/07/03 07:46:07;;;;;;;2.08;1.35;;;24.40;99.90;;;;;;5072839;28;20055;-87
2022/07/03 07:48:36;;;;;;;2.65;1.42;;;25.20;99.90;;;;;;5072505;28;20044;-86
2022/07/03 07:51:02;;;;;;;2.15;1.30;;;25.60;99.90;;;;;;5072931;28;20040;-86
2022/07/03 07:53:28;;;;;;;3.42;1.40;;;25.60;99.90;;;;;;5063764;28;20588;-87
2022/07/03 07:55:53;;;;;;;2.58;1.30;;;25.20;99.90;;;;;;5072390;28;20072;-87
2022/07/03 07:58:19;;;;;;;2.30;1.60;;;25.20;99.90;;;;;;5027481;28;20095;-87
2022/07/03 08:06:16;;;;;;;1.95;1.38;;;26.10;99.90;;;;;;5071936;28;20461;-87
2022/07/03 08:08:42;;;;;;;5.43;1.63;;;26.50;99.90;;;;;;5053842;28;20155;-87
2022/07/03 08:11:08;;;;;;;3.55;1.27;;;26.70;99.90;;;;;;5071494;28;20088;-85
2022/07/03 08:13:33;;;;;;;2.10;1.25;;;26.20;99.90;;;;;;5065353;28;20052;-87
2022/07/03 08:15:59;;;;;;;3.38;1.52;;;26.60;99.90;;;;;;5044251;28;20090;-86
2022/07/03 08:18:25;;;;;;;2.03;1.50;;;26.30;99.90;;;;;;5019683;28;20037;-86
2022/07/03 08:20:50;;;;;;;3.60;1.40;;;26.80;99.90;;;;;;5051916;28;20124;-87
2022/07/03 08:23:16;;;;;;;3.63;1.50;;;26.50;99.90;;;;;;5033643;28;20033;-87
2022/07/03 08:25:42;;;;;;;2.60;1.10;;;26.60;99.90;;;;;;5033373;28;20036;-87
2022/07/03 08:28:07;;;;;;;3.35;1.60;;;26.90;99.90;;;;;;5051615;28;20107;-86
2022/07/03 08:30:33;;;;;;;3.60;1.38;;;27.40;99.90;;;;;;5016925;28;20056;-87
2022/07/03 08:32:59;;;;;;;3.10;1.30;;;27.60;99.90;;;;;;5051107;28;20053;-86
2022/07/03 08:35:24;;;;;;;3.05;1.23;;;27.30;99.90;;;;;;5034591;28;20048;-86
2022/07/03 08:37:50;;;;;;;3.75;1.45;;;26.90;99.90;;;;;;5057363;28;20342;-86
2022/07/03 08:40:17;;;;;;;2.95;1.75;;;26.20;99.90;;;;;;5034394;28;20118;-86
2022/07/03 08:42:45;;;;;;;4.03;1.60;;;25.40;99.90;;;;;;5000276;28;20072;-86
2022/07/03 08:45:17;;;;;;;3.15;1.50;;;25.20;99.90;;;;;;5033918;28;20040;-86
2022/07/03 08:47:44;;;;;;;3.85;1.88;;;24.80;99.90;;;;;;5051004;28;20450;-87
2022/07/03 08:50:12;;;;;;;3.67;1.77;;;24.70;99.90;;;;;;5034102;28;20127;-88
2022/07/03 08:52:37;;;;;;;5.18;1.63;;;24.40;99.90;;;;;;5054470;28;20048;-87
2022/07/03 08:55:03;;;;;;;6.10;1.63;;;24.40;99.90;;;;;;5034722;28;20043;-87
2022/07/03 08:57:32;;;;;;;4.97;1.60;;;24.40;99.90;;;;;;5040436;28;20350;-86
2022/07/03 08:59:57;;;;;;;5.15;1.58;;;24.80;99.90;;;;;;5050253;28;20052;-84
2022/07/03 09:02:23;;;;;;;5.72;2.28;;;25.30;99.90;;;;;;5000425;28;20098;-84
2022/07/03 09:04:49;;;;;;;5.47;2.92;;;25.10;99.90;;;;;;5032809;28;20037;-85
2022/07/03 09:07:14;;;;;;;3.67;1.45;;;24.80;99.90;;;;;;5050696;28;20103;-85
2022/07/03 09:09:40;;;;;;;4.40;1.70;;;25.00;99.90;;;;;;5050480;28;20045;-86
2022/07/03 09:12:06;;;;;;;4.78;1.45;;;25.80;99.90;;;;;;5016823;28;20045;-86
2022/07/03 09:14:32;;;;;;;3.25;1.40;;;25.80;99.90;;;;;;5017284;28;20051;-85
2022/07/03 09:16:57;;;;;;;3.70;1.67;;;26.00;99.90;;;;;;5016709;28;20070;-84
2022/07/03 09:19:42;;;;;;;4.13;1.45;;;25.80;99.90;;;;;;5033274;28;20132;-85
2022/07/03 09:22:35;;;;;;;2.95;1.50;;;26.60;99.90;;;;;;5017212;28;20518;-85
2022/07/03 09:25:11;;;;;;;4.78;1.45;;;27.40;99.90;;;;;;5046170;28;20057;-84
2022/07/03 09:27:37;;;;;;;4.85;1.10;;;27.50;99.90;;;;;;5033484;28;20044;-84
2022/07/03 09:30:05;;;;;;;1.83;1.30;;;27.30;99.90;;;;;;5033402;28;20037;-84
2022/07/03 09:32:51;;;;;;;3.95;1.40;;;27.60;99.90;;;;;;5050438;28;20061;-85
2022/07/03 09:35:20;;;;;;;2.20;1.38;;;27.80;99.90;;;;;;5050168;28;20053;-85
2022/07/03 09:37:59;;;;;;;2.38;1.20;;;27.70;99.90;;;;;;5050004;28;20472;-85
2022/07/03 09:40:26;;;;;;;6.30;1.50;;;26.20;99.90;;;;;;5016644;28;20053;-85
2022/07/03 09:43:02;;;;;;;4.28;1.52;;;25.80;99.90;;;;;;5050871;28;20044;-85
2022/07/03 09:45:27;;;;;;;2.25;1.20;;;26.40;99.90;;;;;;5050562;28;20226;-85
2022/07/03 09:47:53;;;;;;;1.70;0.90;;;26.80;99.90;;;;;;5050003;28;20049;-84
2022/07/03 09:50:19;;;;;;;2.03;1.00;;;27.50;99.90;;;;;;5032896;28;20045;-84
2022/07/03 09:52:46;;;;;;;2.30;0.90;;;28.10;99.90;;;;;;5032442;28;20473;-84
2022/07/03 09:55:11;;;;;;;2.92;1.38;;;27.90;99.80;;;;;;5016729;28;20037;-84
2022/07/03 09:57:43;;;;;;;3.35;1.17;;;27.90;99.50;;;;;;5049724;28;20133;-84
2022/07/03 10:00:13;;;;;;;1.35;0.88;;;27.90;99.70;;;;;;5016267;28;20052;-84
2022/07/03 10:03:12;;;;;;;1.77;1.00;;;27.60;99.10;;;;;;5049481;28;20083;-84
2022/07/03 10:05:41;;;;;;;1.95;0.88;;;27.80;99.40;;;;;;5031452;28;20076;-84
2022/07/03 10:08:11;;;;;;;1.85;0.90;;;27.30;99.00;;;;;;5038305;28;20052;-87
2022/07/03 10:10:47;;;;;;;2.45;1.08;;;27.20;99.00;;;;;;5043457;28;20093;-88
2022/07/03 10:13:13;;;;;;;1.38;0.90;;;27.60;99.60;;;;;;5043881;28;20133;-87
2022/07/03 10:15:39;;;;;;;3.13;0.88;;;27.40;99.30;;;;;;5043650;28;20059;-87
2022/07/03 10:18:09;;;;;;;1.08;0.70;;;27.90;99.50;;;;;;5025147;28;20048;-87
2022/07/03 10:20:35;;;;;;;0.93;0.77;;;27.60;98.40;;;;;;5044732;28;20040;-88
2022/07/03 10:23:01;;;;;;;0.75;0.60;;;27.60;97.00;;;;;;5063203;28;20041;-85
2022/07/03 10:25:27;;;;;;;1.85;0.75;;;27.50;96.50;;;;;;5027797;28;20072;-86
2022/07/03 10:27:53;;;;;;;3.72;0.75;;;26.50;96.90;;;;;;5062216;28;20080;-86
2022/07/03 10:30:19;;;;;;;2.45;0.80;;;26.10;97.50;;;;;;5029451;28;20045;-84
2022/07/03 10:32:47;;;;;;;1.13;0.65;;;26.30;98.00;;;;;;5034554;28;20040;-86
2022/07/03 10:35:20;;;;;;;1.08;0.68;;;26.30;97.50;;;;;;5053336;28;20456;-86
2022/07/03 10:38:01;;;;;;;1.05;0.70;;;26.20;98.40;;;;;;5052144;28;20091;-86
2022/07/03 10:46:28;;;;;;;0.98;0.85;;;26.00;98.60;;;;;;5024246;28;20061;-86
2022/07/03 10:49:03;;;;;;;1.80;0.82;;;26.50;98.30;;;;;;5018363;28;20455;-86
2022/07/03 10:52:02;;;;;;;1.58;0.70;;;27.30;98.40;;;;;;5051823;28;20380;-86
2022/07/03 10:54:36;;;;;;;1.90;0.95;;;27.70;98.40;;;;;;5035479;28;20092;-86
2022/07/03 10:57:08;;;;;;;2.17;0.90;;;27.00;98.30;;;;;;5053421;28;20044;-85
2022/07/03 10:59:44;;;;;;;1.27;0.75;;;27.00;99.00;;;;;;5030231;28;20087;-86
2022/07/03 11:02:23;;;;;;;1.00;0.90;;;26.60;98.90;;;;;;5069669;28;20045;-85
2022/07/03 11:04:58;;;;;;;2.45;1.00;;;26.70;99.20;;;;;;5054841;28;20076;-84
2022/07/03 11:07:27;;;;;;;0.90;0.80;;;26.10;98.90;;;;;;5054851;28;20044;-86
2022/07/03 11:10:14;;;;;;;3.20;1.00;;;26.50;99.10;;;;;;5072024;28;20043;-84
2022/07/03 11:13:01;;;;;;;2.00;0.80;;;27.30;99.10;;;;;;5072606;28;20049;-84
2022/07/03 11:15:31;;;;;;;3.65;1.10;;;27.40;98.90;;;;;;5072386;28;20047;-85
2022/07/03 11:18:13;;;;;;;1.92;0.80;;;27.90;98.20;;;;;;5054078;28;20179;-84
2022/07/03 11:20:42;;;;;;;3.15;1.00;;;28.40;97.80;;;;;;5072146;28;20097;-86
2022/07/03 11:23:13;;;;;;;2.30;0.90;;;28.20;98.00;;;;;;5053619;28;20083;-84
2022/07/03 11:25:42;;;;;;;2.97;1.25;;;27.60;98.70;;;;;;5054820;28;20076;-84
2022/07/03 11:28:34;;;;;;;1.23;0.88;;;27.50;98.90;;;;;;5038113;28;20048;-84
2022/07/03 11:31:15;;;;;;;1.10;0.85;;;27.20;98.30;;;;;;5040446;28;20101;-87
2022/07/03 11:33:45;;;;;;;5.53;1.00;;;26.40;98.50;;;;;;5054346;28;20530;-87
2022/07/03 11:36:17;;;;;;;2.08;0.70;;;26.40;98.90;;;;;;5021676;28;20506;-86
2022/07/03 11:38:44;;;;;;;1.35;0.90;;;26.90;99.40;;;;;;5054232;28;20423;-86
2022/07/03 11:41:11;;;;;;;1.67;0.80;;;27.10;99.20;;;;;;5054190;28;20044;-86
2022/07/03 11:43:37;;;;;;;1.10;0.80;;;27.20;97.90;;;;;;5054361;28;20052;-83
2022/07/03 11:46:03;;;;;;;1.67;0.93;;;26.80;98.40;;;;;;5053683;28;20044;-83
2022/07/03 11:48:29;;;;;;;3.00;0.88;;;26.50;99.00;;;;;;5021108;28;20040;-83
2022/07/03 11:51:01;;;;;;;3.35;1.00;;;26.30;99.00;;;;;;5041172;28;20047;-84
2022/07/03 11:53:31;;;;;;;2.58;1.00;;;26.10;99.20;;;;;;5052404;28;20036;-84
2022/07/03 11:56:03;;;;;;;0.95;0.68;;;26.50;99.30;;;;;;5034696;28;20127;-84
2022/07/03 11:58:44;;;;;;;1.45;0.70;;;26.70;98.60;;;;;;5036999;28;20055;-83
2022/07/03 12:01:10;;;;;;;1.77;0.90;;;26.40;98.10;;;;;;5053369;28;20094;-83
2022/07/03 12:03:35;;;;;;;1.33;0.77;;;26.10;99.00;;;;;;5070485;28;20038;-84
2022/07/03 12:06:01;;;;;;;1.40;0.85;;;25.70;98.80;;;;;;5053214;28;20047;-84
2022/07/03 12:08:33;;;;;;;2.05;0.77;;;25.80;99.20;;;;;;5071289;28;20056;-82
2022/07/03 12:11:01;;;;;;;2.20;0.90;;;25.70;99.20;;;;;;5036353;28;20136;-85
2022/07/03 12:13:29;;;;;;;1.58;0.90;;;25.60;99.40;;;;;;5071079;28;20127;-85
2022/07/03 12:16:07;;;;;;;3.22;1.20;;;25.70;99.80;;;;;;5052555;28;20559;-84
2022/07/03 12:18:51;;;;;;;2.10;1.05;;;25.50;99.90;;;;;;5054229;28;20526;-84
2022/07/03 12:21:17;;;;;;;2.08;0.98;;;25.30;99.90;;;;;;5037260;28;20091;-84
2022/07/03 12:23:53;;;;;;;1.20;0.80;;;25.50;99.90;;;;;;5036268;28;20046;-84
2022/07/03 12:26:36;;;;;;;1.80;1.27;;;25.70;99.90;;;;;;5036441;28;20084;-84
2022/07/03 12:29:13;;;;;;;3.88;1.20;;;26.20;99.90;;;;;;5036422;28;20048;-84
2022/07/03 12:31:40;;;;;;;2.67;1.15;;;25.80;99.90;;;;;;5036389;28;20101;-85
2022/07/03 12:34:05;;;;;;;3.00;1.30;;;25.20;99.90;;;;;;5019087;28;20131;-84
2022/07/03 12:36:31;;;;;;;3.60;1.20;;;24.90;99.90;;;;;;5036453;28;20136;-84
2022/07/03 12:38:57;;;;;;;2.80;1.17;;;24.90;99.90;;;;;;5069859;28;20497;-86
2022/07/03 12:41:23;;;;;;;2.95;1.30;;;24.80;99.90;;;;;;5070178;28;20473;-84
2022/07/03 12:43:50;;;;;;;3.05;1.33;;;25.00;99.90;;;;;;5052196;28;20080;-85
2022/07/03 12:46:34;;;;;;;4.18;1.10;;;25.60;99.90;;;;;;5019550;28;20048;-87
2022/07/03 12:49:11;;;;;;;4.15;1.35;;;25.80;99.90;;;;;;5036053;28;20056;-90
2022/07/03 12:51:40;;;;;;;4.28;1.40;;;26.20;99.90;;;;;;5052822;28;20056;-88
2022/07/03 12:54:32;;;;;;;4.00;1.40;;;26.20;99.90;;;;;;5019775;28;20049;-87
2022/07/03 13:00:05;;;;;;;2.42;1.23;;;25.20;99.90;;;;;;5041325;28;20057;-90
2022/07/03 13:02:31;;;;;;;4.75;1.50;;;24.90;99.90;;;;;;5053904;28;20123;-88
2022/07/03 13:05:00;;;;;;;4.43;1.60;;;24.60;99.90;;;;;;5071097;28;20425;-87
2022/07/03 13:07:30;;;;;;;4.93;1.05;;;24.90;99.90;;;;;;5053110;28;20052;-90
2022/07/03 13:09:55;;;;;;;3.15;1.20;;;24.90;99.90;;;;;;5036914;28;20080;-86
2022/07/03 13:12:22;;;;;;;3.55;1.02;;;25.00;99.90;;;;;;5052933;28;20091;-92
2022/07/03 13:14:58;;;;;;;2.17;1.00;;;25.00;99.90;;;;;;5020393;28;20135;-91
2022/07/03 13:17:24;;;;;;;2.95;1.00;;;25.20;99.90;;;;;;5071089;28;20052;-86